sensor_id;sensor_type;location;lat;lon;timestamp;temperature;humidity
35240;DHT22;21376;50.954;4.716;2023-05-29T00:01:06;14.10;99.90
35240;DHT22;21376;50.954;4.716;2023-05-29T00:03:42;14.30;99.90
35240;DHT22;21376;50.954;4.716;2023-05-29T00:06:09;14.20;99.90
35240;DHT22;21376;50.954;4.716;2023-05-29T00:08:37;14.20;99.90
35240;DHT22;21376;50.954;4.716;2023-05-29T00:11:06;14.10;99.90
35240;DHT22;21376;50.954;4.716;2023-05-29T00:13:33;14.00;99.90
35240;DHT22;21376;50.954;4.716;2023-05-29T00:16:01;14.00;99.90
35240;DHT22;21376;50.954;4.716;2023-05-29T00:18:42;14.00;99.90
35240;DHT22;21376;50.954;4.716;2023-05-29T00:21:28;14.00;99.90
35240;DHT22;21376;50.954;4.716;2023-05-29T00:23:53;13.90;99.90
35240;DHT22;21376;50.954;4.716;2023-05-29T00:28:49;14.00;99.90
35240;DHT22;21376;50.954;4.716;2023-05-29T00:33:44;13.90;99.90
35240;DHT22;21376;50.954;4.716;2023-05-29T00:36:21;13.70;99.90
35240;DHT22;21376;50.954;4.716;2023-05-29T00:38:50;13.70;99.90
35240;DHT22;21376;50.954;4.716;2023-05-29T00:41:16;13.80;99.90
35240;DHT22;21376;50.954;4.716;2023-05-29T00:43:45;13.50;99.90
35240;DHT22;21376;50.954;4.716;2023-05-29T00:46:12;13.40;99.90
35240;DHT22;21376;50.954;4.716;2023-05-29T00:48:41;13.50;99.90
35240;DHT22;21376;50.954;4.716;2023-05-29T00:51:14;13.50;99.90
35240;DHT22;21376;50.954;4.716;2023-05-29T00:53:43;13.60;99.90
35240;DHT22;21376;50.954;4.716;2023-05-29T00:56:20;13.50;99.90
35240;DHT22;21376;50.954;4.716;2023-05-29T00:58:49;13.40;99.90
35240;DHT22;21376;50.954;4.716;2023-05-29T01:01:21;13.40;99.90
35240;DHT22;21376;50.954;4.716;2023-05-29T01:03:47;13.30;99.90
35240;DHT22;21376;50.954;4.716;2023-05-29T01:06:19;13.20;99.90
35240;DHT22;21376;50.954;4.716;2023-05-29T01:14:07;13.20;99.90
35240;DHT22;21376;50.954;4.716;2023-05-29T01:16:35;13.00;99.90
35240;DHT22;21376;50.954;4.716;2023-05-29T01:27:36;12.90;99.90
35240;DHT22;21376;50.954;4.716;2023-05-29T01:32:34;12.80;99.90
35240;DHT22;21376;50.954;4.716;2023-05-29T01:35:01;12.70;99.90
35240;DHT22;21376;50.954;4.716;2023-05-29T01:37:29;12.70;99.90
35240;DHT22;21376;50.954;4.716;2023-05-29T01:39:58;12.70;99.90
35240;DHT22;21376;50.954;4.716;2023-05-29T01:42:26;12.50;99.90
35240;DHT22;21376;50.954;4.716;2023-05-29T01:44:56;12.60;99.90
35240;DHT22;21376;50.954;4.716;2023-05-29T01:47:23;12.60;99.90
35240;DHT22;21376;50.954;4.716;2023-05-29T01:52:46;12.80;99.90
35240;DHT22;21376;50.954;4.716;2023-05-29T01:57:44;12.70;99.90
35240;DHT22;21376;50.954;4.716;2023-05-29T02:00:10;12.60;99.90
35240;DHT22;21376;50.954;4.716;2023-05-29T02:02:37;12.60;99.90
35240;DHT22;21376;50.954;4.716;2023-05-29T02:05:05;12.70;99.90
35240;DHT22;21376;50.954;4.716;2023-05-29T02:07:31;12.70;99.90
35240;DHT22;21376;50.954;4.716;2023-05-29T02:09:59;12.70;99.90
35240;DHT22;21376;50.954;4.716;2023-05-29T02:12:26;12.60;99.90
35240;DHT22;21376;50.954;4.716;2023-05-29T02:14:55;12.60;99.90
35240;DHT22;21376;50.954;4.716;2023-05-29T02:23:01;12.50;99.90
35240;DHT22;21376;50.954;4.716;2023-05-29T02:25:29;12.50;99.90
35240;DHT22;21376;50.954;4.716;2023-05-29T02:27:58;12.10;99.90
35240;DHT22;21376;50.954;4.716;2023-05-29T02:30:26;12.20;99.90
35240;DHT22;21376;50.954;4.716;2023-05-29T02:32:52;12.30;99.90
35240;DHT22;21376;50.954;4.716;2023-05-29T02:43:56;11.80;99.90
35240;DHT22;21376;50.954;4.716;2023-05-29T02:46:22;11.80;99.90
35240;DHT22;21376;50.954;4.716;2023-05-29T02:48:49;11.80;99.90
35240;DHT22;21376;50.954;4.716;2023-05-29T02:51:15;11.70;99.90
35240;DHT22;21376;50.954;4.716;2023-05-29T02:53:41;11.60;99.90
35240;DHT22;21376;50.954;4.716;2023-05-29T02:56:07;11.60;99.90
35240;DHT22;21376;50.954;4.716;2023-05-29T02:58:36;11.40;99.90
35240;DHT22;21376;50.954;4.716;2023-05-29T03:01:04;11.40;99.90
35240;DHT22;21376;50.954;4.716;2023-05-29T03:03:32;11.20;99.90
35240;DHT22;21376;50.954;4.716;2023-05-29T03:06:08;11.30;99.90
35240;DHT22;21376;50.954;4.716;2023-05-29T03:08:36;11.30;99.90
35240;DHT22;21376;50.954;4.716;2023-05-29T03:11:14;11.60;99.90
35240;DHT22;21376;50.954;4.716;2023-05-29T03:13:42;11.50;99.90
35240;DHT22;21376;50.954;4.716;2023-05-29T03:16:08;11.50;99.90
35240;DHT22;21376;50.954;4.716;2023-05-29T03:18:36;11.30;99.90
35240;DHT22;21376;50.954;4.716;2023-05-29T03:21:02;11.20;99.90
35240;DHT22;21376;50.954;4.716;2023-05-29T03:23:27;11.30;99.90
35240;DHT22;21376;50.954;4.716;2023-05-29T03:25:54;11.20;99.90
35240;DHT22;21376;50.954;4.716;2023-05-29T03:28:22;11.20;99.90
35240;DHT22;21376;50.954;4.716;2023-05-29T03:30:48;11.10;99.90
35240;DHT22;21376;50.954;4.716;2023-05-29T03:33:13;11.20;99.90
35240;DHT22;21376;50.954;4.716;2023-05-29T03:38:11;11.20;99.90
35240;DHT22;21376;50.954;4.716;2023-05-29T03:43:09;11.00;99.90
35240;DHT22;21376;50.954;4.716;2023-05-29T03:48:25;11.10;99.90
35240;DHT22;21376;50.954;4.716;2023-05-29T03:50:54;11.20;99.90
35240;DHT22;21376;50.954;4.716;2023-05-29T03:53:20;11.10;99.90
35240;DHT22;21376;50.954;4.716;2023-05-29T03:55:52;11.10;99.90
35240;DHT22;21376;50.954;4.716;2023-05-29T04:00:48;11.00;99.90
35240;DHT22;21376;50.954;4.716;2023-05-29T04:03:15;11.10;99.90
35240;DHT22;21376;50.954;4.716;2023-05-29T04:05:41;10.90;99.90
35240;DHT22;21376;50.954;4.716;2023-05-29T04:08:07;11.10;99.90
35240;DHT22;21376;50.954;4.716;2023-05-29T04:10:46;11.00;99.90
35240;DHT22;21376;50.954;4.716;2023-05-29T04:13:14;11.00;99.90
35240;DHT22;21376;50.954;4.716;2023-05-29T04:15:42;11.00;99.90
35240;DHT22;21376;50.954;4.716;2023-05-29T04:26:14;11.20;99.90
35240;DHT22;21376;50.954;4.716;2023-05-29T04:28:43;11.30;99.90
35240;DHT22;21376;50.954;4.716;2023-05-29T04:31:11;11.30;99.90
35240;DHT22;21376;50.954;4.716;2023-05-29T04:33:42;11.50;99.90
35240;DHT22;21376;50.954;4.716;2023-05-29T04:36:10;11.40;99.90
35240;DHT22;21376;50.954;4.716;2023-05-29T04:38:39;11.40;99.90
35240;DHT22;21376;50.954;4.716;2023-05-29T04:41:06;11.80;99.90
35240;DHT22;21376;50.954;4.716;2023-05-29T04:43:45;12.60;99.90
35240;DHT22;21376;50.954;4.716;2023-05-29T04:46:22;13.40;99.90
35240;DHT22;21376;50.954;4.716;2023-05-29T04:48:51;13.50;99.90
35240;DHT22;21376;50.954;4.716;2023-05-29T04:51:22;12.90;99.90
35240;DHT22;21376;50.954;4.716;2023-05-29T04:53:49;12.70;99.90
35240;DHT22;21376;50.954;4.716;2023-05-29T04:56:20;12.40;99.90
35240;DHT22;21376;50.954;4.716;2023-05-29T04:58:49;12.30;99.90
35240;DHT22;21376;50.954;4.716;2023-05-29T05:01:20;12.40;99.90
35240;DHT22;21376;50.954;4.716;2023-05-29T05:03:48;12.80;99.90
35240;DHT22;21376;50.954;4.716;2023-05-29T05:06:16;13.80;99.90
35240;DHT22;21376;50.954;4.716;2023-05-29T05:08:49;15.40;99.90
35240;DHT22;21376;50.954;4.716;2023-05-29T05:11:14;16.20;99.90
35240;DHT22;21376;50.954;4.716;2023-05-29T05:13:41;16.80;99.90
35240;DHT22;21376;50.954;4.716;2023-05-29T05:16:10;16.70;99.90
35240;DHT22;21376;50.954;4.716;2023-05-29T05:18:39;16.30;99.90
35240;DHT22;21376;50.954;4.716;2023-05-29T05:23:43;15.10;99.90
35240;DHT22;21376;50.954;4.716;2023-05-29T05:26:12;15.80;99.90
35240;DHT22;21376;50.954;4.716;2023-05-29T05:28:39;16.10;99.90
35240;DHT22;21376;50.954;4.716;2023-05-29T05:36:07;16.70;99.90
35240;DHT22;21376;50.954;4.716;2023-05-29T05:38:39;17.00;99.90
35240;DHT22;21376;50.954;4.716;2023-05-29T05:41:07;17.60;99.90
35240;DHT22;21376;50.954;4.716;2023-05-29T05:46:22;19.10;99.90
35240;DHT22;21376;50.954;4.716;2023-05-29T05:48:49;18.80;99.90
35240;DHT22;21376;50.954;4.716;2023-05-29T05:51:16;18.90;99.90
35240;DHT22;21376;50.954;4.716;2023-05-29T05:53:43;18.50;99.90
35240;DHT22;21376;50.954;4.716;2023-05-29T05:56:12;18.90;99.90
35240;DHT22;21376;50.954;4.716;2023-05-29T05:58:44;19.30;99.90
35240;DHT22;21376;50.954;4.716;2023-05-29T06:01:10;20.30;99.90
35240;DHT22;21376;50.954;4.716;2023-05-29T06:03:36;19.50;99.90
35240;DHT22;21376;50.954;4.716;2023-05-29T06:06:03;19.90;99.90
35240;DHT22;21376;50.954;4.716;2023-05-29T06:11:03;20.40;99.90
35240;DHT22;21376;50.954;4.716;2023-05-29T06:13:41;20.90;99.90
35240;DHT22;21376;50.954;4.716;2023-05-29T06:16:07;21.60;99.90
35240;DHT22;21376;50.954;4.716;2023-05-29T06:18:36;21.80;99.90
35240;DHT22;21376;50.954;4.716;2023-05-29T06:21:04;21.50;99.90
35240;DHT22;21376;50.954;4.716;2023-05-29T06:23:31;21.60;99.90
35240;DHT22;21376;50.954;4.716;2023-05-29T06:28:27;21.90;99.90
35240;DHT22;21376;50.954;4.716;2023-05-29T06:30:53;21.90;99.80
35240;DHT22;21376;50.954;4.716;2023-05-29T06:33:27;21.40;99.80
35240;DHT22;21376;50.954;4.716;2023-05-29T06:35:52;21.20;99.90
35240;DHT22;21376;50.954;4.716;2023-05-29T06:38:21;21.30;99.90
35240;DHT22;21376;50.954;4.716;2023-05-29T06:40:47;20.90;99.90
35240;DHT22;21376;50.954;4.716;2023-05-29T06:43:14;21.90;99.90
35240;DHT22;21376;50.954;4.716;2023-05-29T06:45:40;22.20;99.20
35240;DHT22;21376;50.954;4.716;2023-05-29T06:48:06;22.60;98.10
35240;DHT22;21376;50.954;4.716;2023-05-29T06:50:32;23.10;96.80
35240;DHT22;21376;50.954;4.716;2023-05-29T06:52:59;23.00;96.50
35240;DHT22;21376;50.954;4.716;2023-05-29T06:55:27;23.40;97.10
35240;DHT22;21376;50.954;4.716;2023-05-29T06:57:52;23.60;95.40
35240;DHT22;21376;50.954;4.716;2023-05-29T07:00:18;24.40;94.80
35240;DHT22;21376;50.954;4.716;2023-05-29T07:02:44;25.00;93.50
35240;DHT22;21376;50.954;4.716;2023-05-29T07:05:09;26.00;91.90
35240;DHT22;21376;50.954;4.716;2023-05-29T07:07:35;25.80;91.90
35240;DHT22;21376;50.954;4.716;2023-05-29T07:10:01;25.90;91.00
35240;DHT22;21376;50.954;4.716;2023-05-29T07:12:26;25.50;90.10
35240;DHT22;21376;50.954;4.716;2023-05-29T07:14:52;25.10;90.10
35240;DHT22;21376;50.954;4.716;2023-05-29T07:17:17;24.70;90.90
35240;DHT22;21376;50.954;4.716;2023-05-29T07:19:45;24.70;90.30
35240;DHT22;21376;50.954;4.716;2023-05-29T07:22:12;25.50;89.90
35240;DHT22;21376;50.954;4.716;2023-05-29T07:24:37;26.30;87.10
35240;DHT22;21376;50.954;4.716;2023-05-29T07:27:06;26.90;86.60
35240;DHT22;21376;50.954;4.716;2023-05-29T07:29:32;26.10;85.50
35240;DHT22;21376;50.954;4.716;2023-05-29T07:31:58;26.30;86.70
35240;DHT22;21376;50.954;4.716;2023-05-29T07:34:23;26.00;86.10
35240;DHT22;21376;50.954;4.716;2023-05-29T07:36:56;25.30;86.60
35240;DHT22;21376;50.954;4.716;2023-05-29T07:39:22;26.20;89.00
35240;DHT22;21376;50.954;4.716;2023-05-29T07:41:47;27.10;86.00
35240;DHT22;21376;50.954;4.716;2023-05-29T07:44:14;28.30;83.00
35240;DHT22;21376;50.954;4.716;2023-05-29T07:46:40;28.40;80.30
35240;DHT22;21376;50.954;4.716;2023-05-29T07:49:06;27.20;80.90
35240;DHT22;21376;50.954;4.716;2023-05-29T07:51:33;26.50;84.00
35240;DHT22;21376;50.954;4.716;2023-05-29T07:53:59;26.20;82.10
35240;DHT22;21376;50.954;4.716;2023-05-29T07:59:05;26.80;82.60
35240;DHT22;21376;50.954;4.716;2023-05-29T08:01:33;26.90;82.30
35240;DHT22;21376;50.954;4.716;2023-05-29T08:03:59;27.00;81.50
35240;DHT22;21376;50.954;4.716;2023-05-29T08:06:26;27.20;82.40
35240;DHT22;21376;50.954;4.716;2023-05-29T08:08:54;28.40;79.90
35240;DHT22;21376;50.954;4.716;2023-05-29T08:11:23;28.70;78.90
35240;DHT22;21376;50.954;4.716;2023-05-29T08:13:49;28.80;77.40
35240;DHT22;21376;50.954;4.716;2023-05-29T08:16:15;29.30;74.50
35240;DHT22;21376;50.954;4.716;2023-05-29T08:18:42;28.60;76.30
35240;DHT22;21376;50.954;4.716;2023-05-29T08:21:09;28.90;76.60
35240;DHT22;21376;50.954;4.716;2023-05-29T08:23:34;29.30;74.20
35240;DHT22;21376;50.954;4.716;2023-05-29T08:28:34;29.40;73.10
35240;DHT22;21376;50.954;4.716;2023-05-29T08:31:00;29.40;72.80
35240;DHT22;21376;50.954;4.716;2023-05-29T08:33:28;30.20;74.10
35240;DHT22;21376;50.954;4.716;2023-05-29T08:35:57;29.90;70.50
35240;DHT22;21376;50.954;4.716;2023-05-29T08:38:22;29.40;70.90
35240;DHT22;21376;50.954;4.716;2023-05-29T08:43:21;30.30;72.40
35240;DHT22;21376;50.954;4.716;2023-05-29T08:45:58;30.60;70.10
35240;DHT22;21376;50.954;4.716;2023-05-29T08:48:24;30.10;70.50
35240;DHT22;21376;50.954;4.716;2023-05-29T08:50:53;30.40;70.70
35240;DHT22;21376;50.954;4.716;2023-05-29T08:53:20;29.60;71.90
35240;DHT22;21376;50.954;4.716;2023-05-29T08:55:47;29.10;74.30
35240;DHT22;21376;50.954;4.716;2023-05-29T08:58:16;29.00;71.60
35240;DHT22;21376;50.954;4.716;2023-05-29T09:00:46;28.90;71.70
35240;DHT22;21376;50.954;4.716;2023-05-29T09:03:12;28.00;72.30
35240;DHT22;21376;50.954;4.716;2023-05-29T09:05:41;27.80;74.00
35240;DHT22;21376;50.954;4.716;2023-05-29T09:08:08;28.20;73.60
35240;DHT22;21376;50.954;4.716;2023-05-29T09:10:36;28.20;72.90
35240;DHT22;21376;50.954;4.716;2023-05-29T09:13:04;28.90;73.70
35240;DHT22;21376;50.954;4.716;2023-05-29T09:17:59;28.70;73.00
35240;DHT22;21376;50.954;4.716;2023-05-29T09:22:58;29.40;71.60
35240;DHT22;21376;50.954;4.716;2023-05-29T09:25:25;29.40;71.80
35240;DHT22;21376;50.954;4.716;2023-05-29T09:27:59;29.00;70.90
35240;DHT22;21376;50.954;4.716;2023-05-29T09:33:11;29.60;70.50
35240;DHT22;21376;50.954;4.716;2023-05-29T09:38:05;29.30;70.70
35240;DHT22;21376;50.954;4.716;2023-05-29T09:40:38;28.90;71.30
35240;DHT22;21376;50.954;4.716;2023-05-29T09:43:13;28.40;70.30
35240;DHT22;21376;50.954;4.716;2023-05-29T09:45:41;29.30;69.20
35240;DHT22;21376;50.954;4.716;2023-05-29T09:48:08;28.80;70.00
35240;DHT22;21376;50.954;4.716;2023-05-29T09:50:37;28.20;71.40
35240;DHT22;21376;50.954;4.716;2023-05-29T09:55:32;28.60;70.20
35240;DHT22;21376;50.954;4.716;2023-05-29T10:00:30;28.50;70.20
35240;DHT22;21376;50.954;4.716;2023-05-29T10:02:59;28.90;71.90
35240;DHT22;21376;50.954;4.716;2023-05-29T10:05:28;30.20;69.90
35240;DHT22;21376;50.954;4.716;2023-05-29T10:07:57;29.90;68.90
35240;DHT22;21376;50.954;4.716;2023-05-29T10:10:27;29.40;68.90
35240;DHT22;21376;50.954;4.716;2023-05-29T10:12:57;29.70;68.30
35240;DHT22;21376;50.954;4.716;2023-05-29T10:18:00;30.90;66.50
35240;DHT22;21376;50.954;4.716;2023-05-29T10:20:28;30.40;65.50
35240;DHT22;21376;50.954;4.716;2023-05-29T10:23:11;29.40;68.10
35240;DHT22;21376;50.954;4.716;2023-05-29T10:25:41;30.10;68.40
35240;DHT22;21376;50.954;4.716;2023-05-29T10:28:10;29.90;66.50
35240;DHT22;21376;50.954;4.716;2023-05-29T10:30:41;29.30;66.90
35240;DHT22;21376;50.954;4.716;2023-05-29T10:45:56;29.30;66.10
35240;DHT22;21376;50.954;4.716;2023-05-29T10:48:41;29.20;69.40
35240;DHT22;21376;50.954;4.716;2023-05-29T10:51:07;30.20;64.90
35240;DHT22;21376;50.954;4.716;2023-05-29T10:53:37;30.90;64.60
35240;DHT22;21376;50.954;4.716;2023-05-29T10:56:10;30.40;64.60
35240;DHT22;21376;50.954;4.716;2023-05-29T10:58:39;30.50;64.80
35240;DHT22;21376;50.954;4.716;2023-05-29T11:01:10;30.40;66.50
35240;DHT22;21376;50.954;4.716;2023-05-29T11:03:37;30.30;65.60
35240;DHT22;21376;50.954;4.716;2023-05-29T11:06:08;30.30;65.00
35240;DHT22;21376;50.954;4.716;2023-05-29T11:08:58;29.50;67.20
35240;DHT22;21376;50.954;4.716;2023-05-29T11:11:30;29.40;68.30
35240;DHT22;21376;50.954;4.716;2023-05-29T11:14:13;29.70;65.70
35240;DHT22;21376;50.954;4.716;2023-05-29T11:16:42;29.80;67.00
35240;DHT22;21376;50.954;4.716;2023-05-29T11:19:09;29.10;67.20
35240;DHT22;21376;50.954;4.716;2023-05-29T11:24:21;29.60;66.70
35240;DHT22;21376;50.954;4.716;2023-05-29T11:26:47;29.50;66.00
35240;DHT22;21376;50.954;4.716;2023-05-29T11:29:13;30.10;64.80
35240;DHT22;21376;50.954;4.716;2023-05-29T11:31:41;30.10;64.30
35240;DHT22;21376;50.954;4.716;2023-05-29T11:34:14;29.50;64.40
35240;DHT22;21376;50.954;4.716;2023-05-29T11:36:46;29.50;66.10
35240;DHT22;21376;50.954;4.716;2023-05-29T11:41:52;29.10;66.90
35240;DHT22;21376;50.954;4.716;2023-05-29T11:44:20;29.10;69.20
35240;DHT22;21376;50.954;4.716;2023-05-29T11:46:47;30.20;66.90
35240;DHT22;21376;50.954;4.716;2023-05-29T11:49:27;30.10;67.40
35240;DHT22;21376;50.954;4.716;2023-05-29T11:51:52;30.10;66.70
35240;DHT22;21376;50.954;4.716;2023-05-29T11:57:03;29.90;65.20
35240;DHT22;21376;50.954;4.716;2023-05-29T12:02:10;28.80;65.10
35240;DHT22;21376;50.954;4.716;2023-05-29T12:04:38;29.10;65.70
35240;DHT22;21376;50.954;4.716;2023-05-29T12:09:40;29.40;70.40
35240;DHT22;21376;50.954;4.716;2023-05-29T12:12:12;29.40;66.20
35240;DHT22;21376;50.954;4.716;2023-05-29T12:14:38;29.40;65.20
35240;DHT22;21376;50.954;4.716;2023-05-29T12:17:06;29.20;64.40
35240;DHT22;21376;50.954;4.716;2023-05-29T12:19:35;29.40;65.20
35240;DHT22;21376;50.954;4.716;2023-05-29T12:24:34;30.00;65.10
35240;DHT22;21376;50.954;4.716;2023-05-29T12:27:03;30.30;68.10
35240;DHT22;21376;50.954;4.716;2023-05-29T12:29:30;30.40;63.40
35240;DHT22;21376;50.954;4.716;2023-05-29T12:32:00;29.80;63.50
35240;DHT22;21376;50.954;4.716;2023-05-29T12:34:25;29.70;67.60
35240;DHT22;21376;50.954;4.716;2023-05-29T12:36:54;29.70;65.30
35240;DHT22;21376;50.954;4.716;2023-05-29T12:39:36;29.30;64.90
35240;DHT22;21376;50.954;4.716;2023-05-29T12:44:34;28.50;65.90
35240;DHT22;21376;50.954;4.716;2023-05-29T12:47:03;28.20;69.00
35240;DHT22;21376;50.954;4.716;2023-05-29T12:49:29;28.20;74.60
35240;DHT22;21376;50.954;4.716;2023-05-29T12:52:04;28.30;69.10
35240;DHT22;21376;50.954;4.716;2023-05-29T12:54:30;28.30;67.70
35240;DHT22;21376;50.954;4.716;2023-05-29T12:56:55;28.50;67.20
35240;DHT22;21376;50.954;4.716;2023-05-29T12:59:21;28.80;68.00
35240;DHT22;21376;50.954;4.716;2023-05-29T13:04:17;27.90;68.30
35240;DHT22;21376;50.954;4.716;2023-05-29T13:06:43;27.90;69.10
35240;DHT22;21376;50.954;4.716;2023-05-29T13:09:12;27.50;68.80
35240;DHT22;21376;50.954;4.716;2023-05-29T13:11:41;27.70;69.70
35240;DHT22;21376;50.954;4.716;2023-05-29T13:14:09;27.40;71.30
35240;DHT22;21376;50.954;4.716;2023-05-29T13:16:38;27.20;69.00
35240;DHT22;21376;50.954;4.716;2023-05-29T13:19:08;27.30;70.20
35240;DHT22;21376;50.954;4.716;2023-05-29T13:24:08;27.10;71.70
35240;DHT22;21376;50.954;4.716;2023-05-29T13:29:05;26.50;70.20
35240;DHT22;21376;50.954;4.716;2023-05-29T13:31:31;25.60;71.70
35240;DHT22;21376;50.954;4.716;2023-05-29T13:33:59;25.20;74.20
35240;DHT22;21376;50.954;4.716;2023-05-29T13:38:57;24.70;75.60
35240;DHT22;21376;50.954;4.716;2023-05-29T13:44:16;23.70;78.30
35240;DHT22;21376;50.954;4.716;2023-05-29T13:46:43;23.90;77.50
35240;DHT22;21376;50.954;4.716;2023-05-29T13:49:11;24.10;76.90
35240;DHT22;21376;50.954;4.716;2023-05-29T13:51:38;24.10;77.60
35240;DHT22;21376;50.954;4.716;2023-05-29T13:54:07;24.00;76.70
35240;DHT22;21376;50.954;4.716;2023-05-29T13:56:35;24.00;77.90
35240;DHT22;21376;50.954;4.716;2023-05-29T13:59:01;23.80;77.30
35240;DHT22;21376;50.954;4.716;2023-05-29T14:01:33;23.90;77.30
35240;DHT22;21376;50.954;4.716;2023-05-29T14:04:02;24.10;78.90
35240;DHT22;21376;50.954;4.716;2023-05-29T14:09:28;24.20;76.60
35240;DHT22;21376;50.954;4.716;2023-05-29T14:11:54;23.90;77.80
35240;DHT22;21376;50.954;4.716;2023-05-29T14:14:20;24.10;79.60
35240;DHT22;21376;50.954;4.716;2023-05-29T14:16:55;24.30;78.30
35240;DHT22;21376;50.954;4.716;2023-05-29T14:19:30;24.10;78.70
35240;DHT22;21376;50.954;4.716;2023-05-29T14:21:59;24.20;79.60
35240;DHT22;21376;50.954;4.716;2023-05-29T14:24:29;24.50;79.70
35240;DHT22;21376;50.954;4.716;2023-05-29T14:29:24;24.20;77.90
35240;DHT22;21376;50.954;4.716;2023-05-29T14:31:53;23.90;78.10
35240;DHT22;21376;50.954;4.716;2023-05-29T14:36:58;24.00;78.70
35240;DHT22;21376;50.954;4.716;2023-05-29T14:39:29;23.90;78.70
35240;DHT22;21376;50.954;4.716;2023-05-29T14:42:00;23.50;79.00
35240;DHT22;21376;50.954;4.716;2023-05-29T14:44:30;23.50;80.70
35240;DHT22;21376;50.954;4.716;2023-05-29T14:46:56;23.40;79.40
35240;DHT22;21376;50.954;4.716;2023-05-29T14:49:34;23.20;82.50
35240;DHT22;21376;50.954;4.716;2023-05-29T14:52:14;23.20;80.10
35240;DHT22;21376;50.954;4.716;2023-05-29T14:54:47;23.20;79.40
35240;DHT22;21376;50.954;4.716;2023-05-29T14:57:15;23.20;81.60
35240;DHT22;21376;50.954;4.716;2023-05-29T15:05:10;23.00;79.80
35240;DHT22;21376;50.954;4.716;2023-05-29T15:07:36;22.60;80.50
35240;DHT22;21376;50.954;4.716;2023-05-29T15:10:04;22.40;81.90
35240;DHT22;21376;50.954;4.716;2023-05-29T15:12:30;22.20;82.40
35240;DHT22;21376;50.954;4.716;2023-05-29T15:14:56;22.20;83.30
35240;DHT22;21376;50.954;4.716;2023-05-29T15:17:22;22.30;83.40
35240;DHT22;21376;50.954;4.716;2023-05-29T15:19:47;22.40;83.10
35240;DHT22;21376;50.954;4.716;2023-05-29T15:22:13;22.40;82.80
35240;DHT22;21376;50.954;4.716;2023-05-29T15:24:38;22.30;84.30
35240;DHT22;21376;50.954;4.716;2023-05-29T15:27:05;22.20;82.60
35240;DHT22;21376;50.954;4.716;2023-05-29T15:29:33;22.10;82.80
35240;DHT22;21376;50.954;4.716;2023-05-29T15:31:59;22.00;83.80
35240;DHT22;21376;50.954;4.716;2023-05-29T15:34:26;21.80;86.10
35240;DHT22;21376;50.954;4.716;2023-05-29T15:36:55;21.80;84.80
35240;DHT22;21376;50.954;4.716;2023-05-29T15:41:54;22.00;82.30
35240;DHT22;21376;50.954;4.716;2023-05-29T15:44:23;22.10;84.20
35240;DHT22;21376;50.954;4.716;2023-05-29T15:47:02;22.20;81.50
35240;DHT22;21376;50.954;4.716;2023-05-29T15:49:34;22.20;82.30
35240;DHT22;21376;50.954;4.716;2023-05-29T15:52:00;22.20;80.30
35240;DHT22;21376;50.954;4.716;2023-05-29T15:54:25;22.20;82.00
35240;DHT22;21376;50.954;4.716;2023-05-29T15:57:00;22.20;78.50
35240;DHT22;21376;50.954;4.716;2023-05-29T15:59:32;21.90;76.10
35240;DHT22;21376;50.954;4.716;2023-05-29T16:01:58;22.00;76.80
35240;DHT22;21376;50.954;4.716;2023-05-29T16:04:23;21.60;77.90
35240;DHT22;21376;50.954;4.716;2023-05-29T16:06:49;21.70;75.00
35240;DHT22;21376;50.954;4.716;2023-05-29T16:09:15;21.60;76.60
35240;DHT22;21376;50.954;4.716;2023-05-29T16:11:40;21.40;76.20
35240;DHT22;21376;50.954;4.716;2023-05-29T16:14:07;21.20;76.20
35240;DHT22;21376;50.954;4.716;2023-05-29T16:16:33;20.90;76.10
35240;DHT22;21376;50.954;4.716;2023-05-29T16:19:03;20.80;77.90
35240;DHT22;21376;50.954;4.716;2023-05-29T16:21:29;20.80;78.40
35240;DHT22;21376;50.954;4.716;2023-05-29T16:23:56;20.90;77.50
35240;DHT22;21376;50.954;4.716;2023-05-29T16:26:24;21.00;78.50
35240;DHT22;21376;50.954;4.716;2023-05-29T16:28:52;20.90;78.30
35240;DHT22;21376;50.954;4.716;2023-05-29T16:31:18;21.10;77.00
35240;DHT22;21376;50.954;4.716;2023-05-29T16:33:43;21.00;77.80
35240;DHT22;21376;50.954;4.716;2023-05-29T16:36:12;21.00;77.10
35240;DHT22;21376;50.954;4.716;2023-05-29T16:38:37;20.80;76.50
35240;DHT22;21376;50.954;4.716;2023-05-29T16:41:03;20.80;76.70
35240;DHT22;21376;50.954;4.716;2023-05-29T16:43:30;20.70;77.00
35240;DHT22;21376;50.954;4.716;2023-05-29T16:45:57;20.40;76.80
35240;DHT22;21376;50.954;4.716;2023-05-29T16:48:23;20.30;76.40
35240;DHT22;21376;50.954;4.716;2023-05-29T16:50:51;20.40;77.40
35240;DHT22;21376;50.954;4.716;2023-05-29T16:53:17;20.30;77.90
35240;DHT22;21376;50.954;4.716;2023-05-29T16:55:44;20.20;78.70
35240;DHT22;21376;50.954;4.716;2023-05-29T16:58:10;20.20;78.70
35240;DHT22;21376;50.954;4.716;2023-05-29T17:00:35;20.20;78.10
35240;DHT22;21376;50.954;4.716;2023-05-29T17:03:03;20.10;79.80
35240;DHT22;21376;50.954;4.716;2023-05-29T17:05:32;20.00;80.40
35240;DHT22;21376;50.954;4.716;2023-05-29T17:07:59;20.00;81.70
35240;DHT22;21376;50.954;4.716;2023-05-29T17:10:30;19.90;81.40
35240;DHT22;21376;50.954;4.716;2023-05-29T17:12:57;20.10;80.90
35240;DHT22;21376;50.954;4.716;2023-05-29T17:15:23;19.80;82.00
35240;DHT22;21376;50.954;4.716;2023-05-29T17:17:52;19.70;83.10
35240;DHT22;21376;50.954;4.716;2023-05-29T17:20:21;19.60;82.90
35240;DHT22;21376;50.954;4.716;2023-05-29T17:22:50;19.50;83.40
35240;DHT22;21376;50.954;4.716;2023-05-29T17:27:47;19.40;83.00
35240;DHT22;21376;50.954;4.716;2023-05-29T17:30:21;19.30;84.30
35240;DHT22;21376;50.954;4.716;2023-05-29T17:32:50;19.30;84.70
35240;DHT22;21376;50.954;4.716;2023-05-29T17:35:17;19.30;83.80
35240;DHT22;21376;50.954;4.716;2023-05-29T17:37:43;19.30;86.10
35240;DHT22;21376;50.954;4.716;2023-05-29T17:40:15;19.30;82.80
35240;DHT22;21376;50.954;4.716;2023-05-29T17:42:44;19.40;84.30
35240;DHT22;21376;50.954;4.716;2023-05-29T17:45:12;19.40;83.10
35240;DHT22;21376;50.954;4.716;2023-05-29T17:47:42;19.30;82.90
35240;DHT22;21376;50.954;4.716;2023-05-29T17:50:14;19.20;83.60
35240;DHT22;21376;50.954;4.716;2023-05-29T18:00:18;19.00;84.10
35240;DHT22;21376;50.954;4.716;2023-05-29T18:02:47;19.10;83.70
35240;DHT22;21376;50.954;4.716;2023-05-29T18:05:14;19.10;82.80
35240;DHT22;21376;50.954;4.716;2023-05-29T18:07:43;19.20;83.60
35240;DHT22;21376;50.954;4.716;2023-05-29T18:10:15;19.10;83.40
35240;DHT22;21376;50.954;4.716;2023-05-29T18:12:52;19.10;82.50
35240;DHT22;21376;50.954;4.716;2023-05-29T18:15:18;19.20;80.80
35240;DHT22;21376;50.954;4.716;2023-05-29T18:17:49;19.00;81.90
35240;DHT22;21376;50.954;4.716;2023-05-29T18:20:31;18.90;81.00
35240;DHT22;21376;50.954;4.716;2023-05-29T18:28:17;18.60;84.00
35240;DHT22;21376;50.954;4.716;2023-05-29T18:33:15;18.50;82.00
35240;DHT22;21376;50.954;4.716;2023-05-29T18:35:47;18.40;82.20